sensor_id;sensor_type;location;lat;lon;timestamp;temperature;humidity
8888;DHT22;4480;52.370;9.748;2022-08-27T00:00:07;20.00;99.90
8888;DHT22;4480;52.370;9.748;2022-08-27T00:02:34;20.00;99.90
8888;DHT22;4480;52.370;9.748;2022-08-27T00:05:03;19.90;99.90
8888;DHT22;4480;52.370;9.748;2022-08-27T00:07:31;19.90;99.90
8888;DHT22;4480;52.370;9.748;2022-08-27T00:09:58;19.90;99.90
8888;DHT22;4480;52.370;9.748;2022-08-27T00:12:26;19.90;99.90
8888;DHT22;4480;52.370;9.748;2022-08-27T00:14:53;19.90;99.90
8888;DHT22;4480;52.370;9.748;2022-08-27T00:17:20;19.80;99.90
8888;DHT22;4480;52.370;9.748;2022-08-27T00:19:47;19.80;99.90
8888;DHT22;4480;52.370;9.748;2022-08-27T00:22:16;19.80;99.90
8888;DHT22;4480;52.370;9.748;2022-08-27T00:24:43;19.80;99.90
8888;DHT22;4480;52.370;9.748;2022-08-27T00:27:10;19.80;99.90
8888;DHT22;4480;52.370;9.748;2022-08-27T00:29:37;19.80;99.90
8888;DHT22;4480;52.370;9.748;2022-08-27T00:32:05;19.80;99.90
8888;DHT22;4480;52.370;9.748;2022-08-27T00:34:33;19.80;99.90
8888;DHT22;4480;52.370;9.748;2022-08-27T00:37:01;19.70;99.90
8888;DHT22;4480;52.370;9.748;2022-08-27T00:39:30;19.70;99.90
8888;DHT22;4480;52.370;9.748;2022-08-27T00:41:57;19.70;99.90
8888;DHT22;4480;52.370;9.748;2022-08-27T00:44:25;19.70;99.90
8888;DHT22;4480;52.370;9.748;2022-08-27T00:46:54;19.70;99.90
8888;DHT22;4480;52.370;9.748;2022-08-27T00:49:25;19.70;99.90
8888;DHT22;4480;52.370;9.748;2022-08-27T00:51:57;19.60;99.90
8888;DHT22;4480;52.370;9.748;2022-08-27T00:54:25;19.70;99.90
8888;DHT22;4480;52.370;9.748;2022-08-27T00:56:56;19.70;99.90
8888;DHT22;4480;52.370;9.748;2022-08-27T00:59:26;19.70;99.90
8888;DHT22;4480;52.370;9.748;2022-08-27T01:01:56;19.70;99.90
8888;DHT22;4480;52.370;9.748;2022-08-27T01:04:42;19.70;99.90
8888;DHT22;4480;52.370;9.748;2022-08-27T01:07:10;19.70;99.90
8888;DHT22;4480;52.370;9.748;2022-08-27T01:09:40;19.60;99.90
8888;DHT22;4480;52.370;9.748;2022-08-27T01:12:10;19.70;99.90
8888;DHT22;4480;52.370;9.748;2022-08-27T01:14:37;19.60;99.90
8888;DHT22;4480;52.370;9.748;2022-08-27T01:17:06;19.60;99.90
8888;DHT22;4480;52.370;9.748;2022-08-27T01:19:38;19.60;99.90
8888;DHT22;4480;52.370;9.748;2022-08-27T01:22:13;19.60;99.90
8888;DHT22;4480;52.370;9.748;2022-08-27T01:24:44;19.60;99.90
8888;DHT22;4480;52.370;9.748;2022-08-27T01:27:15;19.50;99.90
8888;DHT22;4480;52.370;9.748;2022-08-27T01:29:44;19.50;99.90
8888;DHT22;4480;52.370;9.748;2022-08-27T01:32:14;19.50;99.90
8888;DHT22;4480;52.370;9.748;2022-08-27T01:34:42;19.50;99.90
8888;DHT22;4480;52.370;9.748;2022-08-27T01:37:10;19.50;99.90
8888;DHT22;4480;52.370;9.748;2022-08-27T01:39:38;19.50;99.90
8888;DHT22;4480;52.370;9.748;2022-08-27T01:42:10;19.50;99.90
8888;DHT22;4480;52.370;9.748;2022-08-27T01:44:43;19.50;99.90
8888;DHT22;4480;52.370;9.748;2022-08-27T01:47:11;19.50;99.90
8888;DHT22;4480;52.370;9.748;2022-08-27T01:49:39;19.50;99.90
8888;DHT22;4480;52.370;9.748;2022-08-27T01:52:06;19.50;99.90
8888;DHT22;4480;52.370;9.748;2022-08-27T01:54:33;19.40;99.90
8888;DHT22;4480;52.370;9.748;2022-08-27T01:57:01;19.40;99.90
8888;DHT22;4480;52.370;9.748;2022-08-27T01:59:30;19.40;99.90
8888;DHT22;4480;52.370;9.748;2022-08-27T02:01:57;19.40;99.90
8888;DHT22;4480;52.370;9.748;2022-08-27T02:04:26;19.40;99.90
8888;DHT22;4480;52.370;9.748;2022-08-27T02:06:53;19.40;99.90
8888;DHT22;4480;52.370;9.748;2022-08-27T02:09:21;19.40;99.90
8888;DHT22;4480;52.370;9.748;2022-08-27T02:11:48;19.30;99.90
8888;DHT22;4480;52.370;9.748;2022-08-27T02:14:15;19.30;99.90
8888;DHT22;4480;52.370;9.748;2022-08-27T02:16:44;19.30;99.90
8888;DHT22;4480;52.370;9.748;2022-08-27T02:19:11;19.30;99.90
8888;DHT22;4480;52.370;9.748;2022-08-27T02:21:38;19.30;99.90
8888;DHT22;4480;52.370;9.748;2022-08-27T02:24:06;19.20;99.90
8888;DHT22;4480;52.370;9.748;2022-08-27T02:26:33;19.30;99.90
8888;DHT22;4480;52.370;9.748;2022-08-27T02:29:00;19.30;99.90
8888;DHT22;4480;52.370;9.748;2022-08-27T02:31:27;19.30;99.90
8888;DHT22;4480;52.370;9.748;2022-08-27T02:33:56;19.30;99.90
8888;DHT22;4480;52.370;9.748;2022-08-27T02:36:23;19.20;99.90
8888;DHT22;4480;52.370;9.748;2022-08-27T02:38:51;19.20;99.90
8888;DHT22;4480;52.370;9.748;2022-08-27T02:41:18;19.20;99.90
8888;DHT22;4480;52.370;9.748;2022-08-27T02:43:45;19.30;99.90
8888;DHT22;4480;52.370;9.748;2022-08-27T02:46:12;19.20;99.90
8888;DHT22;4480;52.370;9.748;2022-08-27T02:48:40;19.20;99.90
8888;DHT22;4480;52.370;9.748;2022-08-27T02:51:10;19.20;99.90
8888;DHT22;4480;52.370;9.748;2022-08-27T02:53:37;19.20;99.90
8888;DHT22;4480;52.370;9.748;2022-08-27T02:56:05;19.20;99.90
8888;DHT22;4480;52.370;9.748;2022-08-27T02:58:32;19.20;99.90
8888;DHT22;4480;52.370;9.748;2022-08-27T03:01:00;19.20;99.90
8888;DHT22;4480;52.370;9.748;2022-08-27T03:03:27;19.20;99.90
8888;DHT22;4480;52.370;9.748;2022-08-27T03:05:55;19.20;99.90
8888;DHT22;4480;52.370;9.748;2022-08-27T03:08:25;19.20;99.90
8888;DHT22;4480;52.370;9.748;2022-08-27T03:10:53;19.20;99.90
8888;DHT22;4480;52.370;9.748;2022-08-27T03:13:20;19.20;99.90
8888;DHT22;4480;52.370;9.748;2022-08-27T03:15:47;19.10;99.90
8888;DHT22;4480;52.370;9.748;2022-08-27T03:18:15;19.10;99.90
8888;DHT22;4480;52.370;9.748;2022-08-27T03:20:47;19.10;99.90
8888;DHT22;4480;52.370;9.748;2022-08-27T03:23:15;19.10;99.90
8888;DHT22;4480;52.370;9.748;2022-08-27T03:25:46;19.10;99.90
8888;DHT22;4480;52.370;9.748;2022-08-27T03:28:16;19.00;99.90
8888;DHT22;4480;52.370;9.748;2022-08-27T03:30:47;19.00;99.90
8888;DHT22;4480;52.370;9.748;2022-08-27T03:33:15;19.10;99.90
8888;DHT22;4480;52.370;9.748;2022-08-27T03:35:42;19.00;99.90
8888;DHT22;4480;52.370;9.748;2022-08-27T03:38:10;19.00;99.90
8888;DHT22;4480;52.370;9.748;2022-08-27T03:40:37;19.00;99.90
8888;DHT22;4480;52.370;9.748;2022-08-27T03:43:05;19.00;99.90
8888;DHT22;4480;52.370;9.748;2022-08-27T03:45:33;19.10;99.90
8888;DHT22;4480;52.370;9.748;2022-08-27T03:48:00;19.10;99.90
8888;DHT22;4480;52.370;9.748;2022-08-27T03:50:27;19.00;99.90
8888;DHT22;4480;52.370;9.748;2022-08-27T03:52:54;19.00;99.90
8888;DHT22;4480;52.370;9.748;2022-08-27T03:55:21;19.00;99.90
8888;DHT22;4480;52.370;9.748;2022-08-27T03:57:49;19.00;99.90
8888;DHT22;4480;52.370;9.748;2022-08-27T04:00:17;19.00;99.90
8888;DHT22;4480;52.370;9.748;2022-08-27T04:02:45;19.00;99.90
8888;DHT22;4480;52.370;9.748;2022-08-27T04:05:13;19.00;99.90
8888;DHT22;4480;52.370;9.748;2022-08-27T04:10:10;19.00;99.90
8888;DHT22;4480;52.370;9.748;2022-08-27T04:12:38;19.00;99.90
8888;DHT22;4480;52.370;9.748;2022-08-27T04:15:07;19.00;99.90
8888;DHT22;4480;52.370;9.748;2022-08-27T04:17:35;19.00;99.90
8888;DHT22;4480;52.370;9.748;2022-08-27T04:20:04;18.90;99.90
8888;DHT22;4480;52.370;9.748;2022-08-27T04:22:32;18.90;99.90
8888;DHT22;4480;52.370;9.748;2022-08-27T04:24:59;18.90;99.90
8888;DHT22;4480;52.370;9.748;2022-08-27T04:27:28;18.90;99.90
8888;DHT22;4480;52.370;9.748;2022-08-27T04:29:58;18.90;99.90
8888;DHT22;4480;52.370;9.748;2022-08-27T04:32:27;18.90;99.90
8888;DHT22;4480;52.370;9.748;2022-08-27T04:34:56;18.90;99.90
8888;DHT22;4480;52.370;9.748;2022-08-27T04:37:24;18.90;99.90
8888;DHT22;4480;52.370;9.748;2022-08-27T04:39:52;18.90;99.90
8888;DHT22;4480;52.370;9.748;2022-08-27T04:42:19;18.90;99.90
8888;DHT22;4480;52.370;9.748;2022-08-27T04:44:47;18.90;99.90
8888;DHT22;4480;52.370;9.748;2022-08-27T04:47:15;18.90;99.90
8888;DHT22;4480;52.370;9.748;2022-08-27T04:49:42;18.90;99.90
8888;DHT22;4480;52.370;9.748;2022-08-27T04:52:09;18.90;99.90
8888;DHT22;4480;52.370;9.748;2022-08-27T04:54:37;18.90;99.90
8888;DHT22;4480;52.370;9.748;2022-08-27T04:57:05;18.90;99.90
8888;DHT22;4480;52.370;9.748;2022-08-27T04:59:34;18.90;99.90
8888;DHT22;4480;52.370;9.748;2022-08-27T05:02:05;18.90;99.90
8888;DHT22;4480;52.370;9.748;2022-08-27T05:04:35;18.90;99.90
8888;DHT22;4480;52.370;9.748;2022-08-27T05:07:05;18.90;99.90
8888;DHT22;4480;52.370;9.748;2022-08-27T05:09:32;18.80;99.90
8888;DHT22;4480;52.370;9.748;2022-08-27T05:12:00;18.80;99.90
8888;DHT22;4480;52.370;9.748;2022-08-27T05:14:27;18.80;99.90
8888;DHT22;4480;52.370;9.748;2022-08-27T05:16:57;18.80;99.90
8888;DHT22;4480;52.370;9.748;2022-08-27T05:19:26;18.80;99.90
8888;DHT22;4480;52.370;9.748;2022-08-27T05:21:55;18.80;99.90
8888;DHT22;4480;52.370;9.748;2022-08-27T05:24:23;18.80;99.90
8888;DHT22;4480;52.370;9.748;2022-08-27T05:26:50;18.80;99.90
8888;DHT22;4480;52.370;9.748;2022-08-27T05:29:17;18.80;99.90
8888;DHT22;4480;52.370;9.748;2022-08-27T05:31:45;18.80;99.90
8888;DHT22;4480;52.370;9.748;2022-08-27T05:34:13;18.80;99.90
8888;DHT22;4480;52.370;9.748;2022-08-27T05:36:45;18.80;99.90
8888;DHT22;4480;52.370;9.748;2022-08-27T05:39:13;18.80;99.90
8888;DHT22;4480;52.370;9.748;2022-08-27T05:41:42;18.80;99.90
8888;DHT22;4480;52.370;9.748;2022-08-27T05:44:11;18.80;99.90
8888;DHT22;4480;52.370;9.748;2022-08-27T05:46:39;18.80;99.90
8888;DHT22;4480;52.370;9.748;2022-08-27T05:49:07;18.80;99.90
8888;DHT22;4480;52.370;9.748;2022-08-27T05:51:35;18.80;99.90
8888;DHT22;4480;52.370;9.748;2022-08-27T05:54:06;18.80;99.90
8888;DHT22;4480;52.370;9.748;2022-08-27T05:56:36;18.80;99.90
8888;DHT22;4480;52.370;9.748;2022-08-27T05:59:04;18.80;99.90
8888;DHT22;4480;52.370;9.748;2022-08-27T06:01:50;18.80;99.90
8888;DHT22;4480;52.370;9.748;2022-08-27T06:04:19;18.90;99.90
8888;DHT22;4480;52.370;9.748;2022-08-27T06:06:47;18.90;99.90
8888;DHT22;4480;52.370;9.748;2022-08-27T06:09:17;18.90;99.90
8888;DHT22;4480;52.370;9.748;2022-08-27T06:11:45;18.90;99.90
8888;DHT22;4480;52.370;9.748;2022-08-27T06:14:13;18.90;99.90
8888;DHT22;4480;52.370;9.748;2022-08-27T06:16:41;18.90;99.90
8888;DHT22;4480;52.370;9.748;2022-08-27T06:19:09;18.90;99.90
8888;DHT22;4480;52.370;9.748;2022-08-27T06:21:37;19.00;99.90
8888;DHT22;4480;52.370;9.748;2022-08-27T06:24:05;19.00;99.90
8888;DHT22;4480;52.370;9.748;2022-08-27T06:26:35;19.10;99.90
8888;DHT22;4480;52.370;9.748;2022-08-27T06:29:03;19.10;99.90
8888;DHT22;4480;52.370;9.748;2022-08-27T06:31:30;19.10;99.90
8888;DHT22;4480;52.370;9.748;2022-08-27T06:34:01;19.10;99.90
8888;DHT22;4480;52.370;9.748;2022-08-27T06:36:29;19.10;99.90
8888;DHT22;4480;52.370;9.748;2022-08-27T06:38:57;19.20;99.90
8888;DHT22;4480;52.370;9.748;2022-08-27T06:41:26;19.10;99.90
8888;DHT22;4480;52.370;9.748;2022-08-27T06:43:55;19.10;99.90
8888;DHT22;4480;52.370;9.748;2022-08-27T06:46:25;19.10;99.90
8888;DHT22;4480;52.370;9.748;2022-08-27T06:48:53;19.10;99.90
8888;DHT22;4480;52.370;9.748;2022-08-27T06:51:22;19.10;99.90
8888;DHT22;4480;52.370;9.748;2022-08-27T06:53:51;19.20;99.90
8888;DHT22;4480;52.370;9.748;2022-08-27T06:56:19;19.20;99.90
8888;DHT22;4480;52.370;9.748;2022-08-27T06:58:47;19.30;99.90
8888;DHT22;4480;52.370;9.748;2022-08-27T07:01:21;19.30;99.90
8888;DHT22;4480;52.370;9.748;2022-08-27T07:03:49;19.30;99.90
8888;DHT22;4480;52.370;9.748;2022-08-27T07:06:16;19.40;99.90
8888;DHT22;4480;52.370;9.748;2022-08-27T07:08:44;19.30;99.90
8888;DHT22;4480;52.370;9.748;2022-08-27T07:11:13;19.30;99.90
8888;DHT22;4480;52.370;9.748;2022-08-27T07:13:40;19.30;99.90
8888;DHT22;4480;52.370;9.748;2022-08-27T07:16:11;19.40;99.90
8888;DHT22;4480;52.370;9.748;2022-08-27T07:18:40;19.40;99.90
8888;DHT22;4480;52.370;9.748;2022-08-27T07:21:08;19.40;99.90
8888;DHT22;4480;52.370;9.748;2022-08-27T07:23:36;19.40;99.90
8888;DHT22;4480;52.370;9.748;2022-08-27T07:26:06;19.40;99.90
8888;DHT22;4480;52.370;9.748;2022-08-27T07:28:34;19.50;99.90
8888;DHT22;4480;52.370;9.748;2022-08-27T07:31:01;19.60;99.90
8888;DHT22;4480;52.370;9.748;2022-08-27T07:33:28;19.60;99.90
8888;DHT22;4480;52.370;9.748;2022-08-27T07:35:57;19.80;99.90
8888;DHT22;4480;52.370;9.748;2022-08-27T07:38:24;19.80;99.90
8888;DHT22;4480;52.370;9.748;2022-08-27T07:40:52;19.90;99.90
8888;DHT22;4480;52.370;9.748;2022-08-27T07:43:19;19.90;99.90
8888;DHT22;4480;52.370;9.748;2022-08-27T07:46:04;20.00;99.90
8888;DHT22;4480;52.370;9.748;2022-08-27T07:48:31;20.00;99.90
8888;DHT22;4480;52.370;9.748;2022-08-27T07:51:01;20.10;99.90
8888;DHT22;4480;52.370;9.748;2022-08-27T07:53:30;20.10;99.90
8888;DHT22;4480;52.370;9.748;2022-08-27T07:56:01;20.20;99.90
8888;DHT22;4480;52.370;9.748;2022-08-27T07:58:29;20.30;99.90
8888;DHT22;4480;52.370;9.748;2022-08-27T08:00:56;20.30;99.90
8888;DHT22;4480;52.370;9.748;2022-08-27T08:03:24;20.30;99.90
8888;DHT22;4480;52.370;9.748;2022-08-27T08:05:51;20.30;99.90
8888;DHT22;4480;52.370;9.748;2022-08-27T08:08:21;20.30;99.90
8888;DHT22;4480;52.370;9.748;2022-08-27T08:10:49;20.30;99.90
8888;DHT22;4480;52.370;9.748;2022-08-27T08:13:17;20.20;99.90
8888;DHT22;4480;52.370;9.748;2022-08-27T08:15:46;20.10;99.90
8888;DHT22;4480;52.370;9.748;2022-08-27T08:18:14;20.10;99.90
8888;DHT22;4480;52.370;9.748;2022-08-27T08:20:41;20.10;99.90
8888;DHT22;4480;52.370;9.748;2022-08-27T08:23:08;20.20;99.90
8888;DHT22;4480;52.370;9.748;2022-08-27T08:25:37;20.20;99.90
8888;DHT22;4480;52.370;9.748;2022-08-27T08:28:04;20.30;99.90
8888;DHT22;4480;52.370;9.748;2022-08-27T08:30:31;20.30;99.90
8888;DHT22;4480;52.370;9.748;2022-08-27T08:32:59;20.40;99.90
8888;DHT22;4480;52.370;9.748;2022-08-27T08:35:26;20.40;99.90
8888;DHT22;4480;52.370;9.748;2022-08-27T08:37:53;20.40;99.90
8888;DHT22;4480;52.370;9.748;2022-08-27T08:40:26;20.20;99.90
8888;DHT22;4480;52.370;9.748;2022-08-27T08:42:56;20.10;99.90
8888;DHT22;4480;52.370;9.748;2022-08-27T08:45:28;20.00;99.90
8888;DHT22;4480;52.370;9.748;2022-08-27T08:48:00;20.00;99.90
8888;DHT22;4480;52.370;9.748;2022-08-27T08:50:34;19.90;99.90
8888;DHT22;4480;52.370;9.748;2022-08-27T08:53:10;19.80;99.90
8888;DHT22;4480;52.370;9.748;2022-08-27T08:55:44;19.80;99.90
8888;DHT22;4480;52.370;9.748;2022-08-27T08:58:20;19.80;99.90
8888;DHT22;4480;52.370;9.748;2022-08-27T09:00:53;19.80;99.90
8888;DHT22;4480;52.370;9.748;2022-08-27T09:03:20;19.80;99.90
8888;DHT22;4480;52.370;9.748;2022-08-27T09:05:53;19.80;99.90
8888;DHT22;4480;52.370;9.748;2022-08-27T09:08:25;19.80;99.90
8888;DHT22;4480;52.370;9.748;2022-08-27T09:10:58;19.70;99.90
8888;DHT22;4480;52.370;9.748;2022-08-27T09:13:36;19.70;99.90
8888;DHT22;4480;52.370;9.748;2022-08-27T09:16:05;19.70;99.90
8888;DHT22;4480;52.370;9.748;2022-08-27T09:18:35;19.70;99.90
8888;DHT22;4480;52.370;9.748;2022-08-27T09:21:08;19.80;99.90
8888;DHT22;4480;52.370;9.748;2022-08-27T09:23:43;19.80;99.90
8888;DHT22;4480;52.370;9.748;2022-08-27T09:26:20;19.80;99.90
8888;DHT22;4480;52.370;9.748;2022-08-27T09:28:55;19.90;99.90
8888;DHT22;4480;52.370;9.748;2022-08-27T09:31:41;20.00;99.90
8888;DHT22;4480;52.370;9.748;2022-08-27T09:34:09;20.00;99.90
8888;DHT22;4480;52.370;9.748;2022-08-27T09:36:50;20.00;99.90
8888;DHT22;4480;52.370;9.748;2022-08-27T09:39:18;20.10;99.90
8888;DHT22;4480;52.370;9.748;2022-08-27T09:41:47;20.10;99.90
8888;DHT22;4480;52.370;9.748;2022-08-27T09:44:18;20.20;99.90
8888;DHT22;4480;52.370;9.748;2022-08-27T09:46:54;20.30;99.90
8888;DHT22;4480;52.370;9.748;2022-08-27T09:49:23;20.30;99.90
8888;DHT22;4480;52.370;9.748;2022-08-27T09:51:50;20.40;99.90
8888;DHT22;4480;52.370;9.748;2022-08-27T09:54:40;20.40;99.90
8888;DHT22;4480;52.370;9.748;2022-08-27T09:57:10;20.50;99.70
8888;DHT22;4480;52.370;9.748;2022-08-27T09:59:42;20.70;99.50
8888;DHT22;4480;52.370;9.748;2022-08-27T10:02:18;20.90;99.10
8888;DHT22;4480;52.370;9.748;2022-08-27T10:04:47;21.10;98.10
8888;DHT22;4480;52.370;9.748;2022-08-27T10:07:30;21.20;97.60
8888;DHT22;4480;52.370;9.748;2022-08-27T10:10:04;21.20;97.00
8888;DHT22;4480;52.370;9.748;2022-08-27T10:12:45;21.20;96.60
8888;DHT22;4480;52.370;9.748;2022-08-27T10:15:14;21.40;96.10
8888;DHT22;4480;52.370;9.748;2022-08-27T10:17:50;21.50;95.90
8888;DHT22;4480;52.370;9.748;2022-08-27T10:20:24;21.60;95.20
8888;DHT22;4480;52.370;9.748;2022-08-27T10:23:02;21.80;94.50
8888;DHT22;4480;52.370;9.748;2022-08-27T10:25:36;21.80;94.10
8888;DHT22;4480;52.370;9.748;2022-08-27T10:28:19;21.80;93.50
8888;DHT22;4480;52.370;9.748;2022-08-27T10:31:07;21.80;93.70
8888;DHT22;4480;52.370;9.748;2022-08-27T10:33:40;21.80;93.50
8888;DHT22;4480;52.370;9.748;2022-08-27T10:36:19;21.80;93.30
8888;DHT22;4480;52.370;9.748;2022-08-27T10:38:57;21.80;93.30
8888;DHT22;4480;52.370;9.748;2022-08-27T10:41:32;21.90;93.00
8888;DHT22;4480;52.370;9.748;2022-08-27T10:44:21;22.00;92.90
8888;DHT22;4480;52.370;9.748;2022-08-27T10:47:11;22.20;92.50
8888;DHT22;4480;52.370;9.748;2022-08-27T10:49:45;22.20;91.60
8888;DHT22;4480;52.370;9.748;2022-08-27T10:52:19;22.20;91.30
8888;DHT22;4480;52.370;9.748;2022-08-27T10:54:52;22.30;90.80
8888;DHT22;4480;52.370;9.748;2022-08-27T10:57:27;22.30;90.30
8888;DHT22;4480;52.370;9.748;2022-08-27T11:00:02;22.30;90.00
8888;DHT22;4480;52.370;9.748;2022-08-27T11:02:36;22.40;89.00
8888;DHT22;4480;52.370;9.748;2022-08-27T11:05:12;22.60;87.90
8888;DHT22;4480;52.370;9.748;2022-08-27T11:07:43;22.80;86.40
8888;DHT22;4480;52.370;9.748;2022-08-27T11:10:17;23.00;85.10
8888;DHT22;4480;52.370;9.748;2022-08-27T11:12:48;23.20;82.70
8888;DHT22;4480;52.370;9.748;2022-08-27T11:15:20;23.30;81.90
8888;DHT22;4480;52.370;9.748;2022-08-27T11:17:53;23.40;80.70
8888;DHT22;4480;52.370;9.748;2022-08-27T11:20:27;23.50;80.00
8888;DHT22;4480;52.370;9.748;2022-08-27T11:22:59;23.60;78.50
8888;DHT22;4480;52.370;9.748;2022-08-27T11:25:40;23.60;78.00
8888;DHT22;4480;52.370;9.748;2022-08-27T11:28:10;23.70;77.00
8888;DHT22;4480;52.370;9.748;2022-08-27T11:30:47;23.70;76.50
8888;DHT22;4480;52.370;9.748;2022-08-27T11:33:25;23.70;75.40
8888;DHT22;4480;52.370;9.748;2022-08-27T11:36:13;23.70;74.90
8888;DHT22;4480;52.370;9.748;2022-08-27T11:38:52;23.80;74.70
8888;DHT22;4480;52.370;9.748;2022-08-27T11:44:13;24.10;72.60
8888;DHT22;4480;52.370;9.748;2022-08-27T11:46:43;24.10;71.30
8888;DHT22;4480;52.370;9.748;2022-08-27T11:49:23;24.00;71.10
8888;DHT22;4480;52.370;9.748;2022-08-27T11:51:57;24.00;71.20
8888;DHT22;4480;52.370;9.748;2022-08-27T11:54:28;23.90;71.10
8888;DHT22;4480;52.370;9.748;2022-08-27T11:56:56;23.90;71.00
8888;DHT22;4480;52.370;9.748;2022-08-27T11:59:31;23.90;70.80
8888;DHT22;4480;52.370;9.748;2022-08-27T12:02:12;23.80;70.90
8888;DHT22;4480;52.370;9.748;2022-08-27T12:04:47;23.80;70.80
8888;DHT22;4480;52.370;9.748;2022-08-27T12:07:32;23.70;70.70
8888;DHT22;4480;52.370;9.748;2022-08-27T12:10:23;23.60;71.30
8888;DHT22;4480;52.370;9.748;2022-08-27T12:13:01;23.60;71.10
8888;DHT22;4480;52.370;9.748;2022-08-27T12:15:43;23.50;71.10
8888;DHT22;4480;52.370;9.748;2022-08-27T12:18:35;23.50;71.40
8888;DHT22;4480;52.370;9.748;2022-08-27T12:21:15;23.60;71.40
8888;DHT22;4480;52.370;9.748;2022-08-27T12:24:05;23.60;71.00
8888;DHT22;4480;52.370;9.748;2022-08-27T12:26:37;23.60;70.80
8888;DHT22;4480;52.370;9.748;2022-08-27T12:29:22;23.60;71.10
8888;DHT22;4480;52.370;9.748;2022-08-27T12:31:52;23.60;71.10
8888;DHT22;4480;52.370;9.748;2022-08-27T12:34:24;23.70;71.10
8888;DHT22;4480;52.370;9.748;2022-08-27T12:36:54;23.70;70.80
8888;DHT22;4480;52.370;9.748;2022-08-27T12:39:27;23.60;70.80
8888;DHT22;4480;52.370;9.748;2022-08-27T12:41:55;23.50;71.10
8888;DHT22;4480;52.370;9.748;2022-08-27T12:44:25;23.50;71.30
8888;DHT22;4480;52.370;9.748;2022-08-27T12:46:56;23.50;71.30
8888;DHT22;4480;52.370;9.748;2022-08-27T12:49:27;23.40;71.20
8888;DHT22;4480;52.370;9.748;2022-08-27T12:52:00;23.30;71.90
8888;DHT22;4480;52.370;9.748;2022-08-27T12:54:37;23.20;72.00
8888;DHT22;4480;52.370;9.748;2022-08-27T12:57:10;23.20;71.90
8888;DHT22;4480;52.370;9.748;2022-08-27T12:59:50;23.20;72.00
8888;DHT22;4480;52.370;9.748;2022-08-27T13:02:34;23.20;72.30
8888;DHT22;4480;52.370;9.748;2022-08-27T13:05:06;23.10;72.20
8888;DHT22;4480;52.370;9.748;2022-08-27T13:07:39;23.10;72.30
8888;DHT22;4480;52.370;9.748;2022-08-27T13:10:09;23.10;72.50
8888;DHT22;4480;52.370;9.748;2022-08-27T13:12:37;23.00;72.60
8888;DHT22;4480;52.370;9.748;2022-08-27T13:15:06;23.00;72.60
8888;DHT22;4480;52.370;9.748;2022-08-27T13:17:37;23.00;72.60
8888;DHT22;4480;52.370;9.748;2022-08-27T13:20:14;22.90;72.50
8888;DHT22;4480;52.370;9.748;2022-08-27T13:22:43;22.80;72.90
8888;DHT22;4480;52.370;9.748;2022-08-27T13:25:22;22.80;72.90
8888;DHT22;4480;52.370;9.748;2022-08-27T13:27:55;22.70;73.00
8888;DHT22;4480;52.370;9.748;2022-08-27T13:30:26;22.70;73.10
8888;DHT22;4480;52.370;9.748;2022-08-27T13:32:53;22.70;73.30
8888;DHT22;4480;52.370;9.748;2022-08-27T13:35:22;22.60;73.80
8888;DHT22;4480;52.370;9.748;2022-08-27T13:37:52;22.60;74.20
8888;DHT22;4480;52.370;9.748;2022-08-27T13:40:24;22.60;74.40
8888;DHT22;4480;52.370;9.748;2022-08-27T13:42:54;22.60;74.50
8888;DHT22;4480;52.370;9.748;2022-08-27T13:45:22;22.60;74.70
8888;DHT22;4480;52.370;9.748;2022-08-27T13:47:51;22.70;74.80
8888;DHT22;4480;52.370;9.748;2022-08-27T13:50:22;22.70;74.70
8888;DHT22;4480;52.370;9.748;2022-08-27T13:52:52;22.80;74.60
8888;DHT22;4480;52.370;9.748;2022-08-27T13:55:38;22.80;74.30
8888;DHT22;4480;52.370;9.748;2022-08-27T13:58:16;22.90;74.20
8888;DHT22;4480;52.370;9.748;2022-08-27T14:00:44;22.90;74.10
8888;DHT22;4480;52.370;9.748;2022-08-27T14:03:32;23.00;74.00
8888;DHT22;4480;52.370;9.748;2022-08-27T14:06:00;23.10;73.60
8888;DHT22;4480;52.370;9.748;2022-08-27T14:08:32;23.20;73.20
8888;DHT22;4480;52.370;9.748;2022-08-27T14:11:04;23.20;72.90
8888;DHT22;4480;52.370;9.748;2022-08-27T14:13:38;23.20;72.70
8888;DHT22;4480;52.370;9.748;2022-08-27T14:16:13;23.10;72.60
8888;DHT22;4480;52.370;9.748;2022-08-27T14:18:50;23.00;72.70
8888;DHT22;4480;52.370;9.748;2022-08-27T14:21:19;23.00;72.70
8888;DHT22;4480;52.370;9.748;2022-08-27T14:23:48;23.00;72.50
8888;DHT22;4480;52.370;9.748;2022-08-27T14:26:15;23.10;72.50
8888;DHT22;4480;52.370;9.748;2022-08-27T14:28:43;23.10;72.20
8888;DHT22;4480;52.370;9.748;2022-08-27T14:31:11;23.00;72.10
8888;DHT22;4480;52.370;9.748;2022-08-27T14:33:38;22.90;72.20
8888;DHT22;4480;52.370;9.748;2022-08-27T14:36:06;22.70;72.20
8888;DHT22;4480;52.370;9.748;2022-08-27T14:38:37;22.60;72.40
8888;DHT22;4480;52.370;9.748;2022-08-27T14:41:06;22.50;72.60
8888;DHT22;4480;52.370;9.748;2022-08-27T14:43:33;22.50;72.80
8888;DHT22;4480;52.370;9.748;2022-08-27T14:46:00;22.50;72.80
8888;DHT22;4480;52.370;9.748;2022-08-27T14:48:30;22.50;72.70
8888;DHT22;4480;52.370;9.748;2022-08-27T14:51:00;22.50;72.80
8888;DHT22;4480;52.370;9.748;2022-08-27T14:53:28;22.60;72.60
8888;DHT22;4480;52.370;9.748;2022-08-27T14:55:56;22.50;72.50
8888;DHT22;4480;52.370;9.748;2022-08-27T14:58:27;22.50;72.80
8888;DHT22;4480;52.370;9.748;2022-08-27T15:00:55;22.50;72.70
8888;DHT22;4480;52.370;9.748;2022-08-27T15:03:22;22.40;72.90
8888;DHT22;4480;52.370;9.748;2022-08-27T15:05:51;22.40;73.20
8888;DHT22;4480;52.370;9.748;2022-08-27T15:08:20;22.40;73.20
8888;DHT22;4480;52.370;9.748;2022-08-27T15:10:48;22.40;73.00
8888;DHT22;4480;52.370;9.748;2022-08-27T15:13:16;22.30;72.20
8888;DHT22;4480;52.370;9.748;2022-08-27T15:15:44;22.30;72.30
8888;DHT22;4480;52.370;9.748;2022-08-27T15:18:12;22.20;72.20
8888;DHT22;4480;52.370;9.748;2022-08-27T15:20:40;22.20;72.40
8888;DHT22;4480;52.370;9.748;2022-08-27T15:23:09;22.10;72.40
8888;DHT22;4480;52.370;9.748;2022-08-27T15:25:38;22.10;72.50
8888;DHT22;4480;52.370;9.748;2022-08-27T15:28:05;22.20;72.30
8888;DHT22;4480;52.370;9.748;2022-08-27T15:30:33;22.10;72.00
8888;DHT22;4480;52.370;9.748;2022-08-27T15:33:03;22.10;72.10
8888;DHT22;4480;52.370;9.748;2022-08-27T15:35:31;22.10;72.10
8888;DHT22;4480;52.370;9.748;2022-08-27T15:37:59;22.10;72.00
8888;DHT22;4480;52.370;9.748;2022-08-27T15:40:28;22.10;71.90
8888;DHT22;4480;52.370;9.748;2022-08-27T15:42:59;22.00;72.00
8888;DHT22;4480;52.370;9.748;2022-08-27T15:45:28;21.90;72.20
8888;DHT22;4480;52.370;9.748;2022-08-27T15:47:56;22.00;72.50
8888;DHT22;4480;52.370;9.748;2022-08-27T15:50:27;22.00;72.50
8888;DHT22;4480;52.370;9.748;2022-08-27T15:52:57;22.00;72.40
8888;DHT22;4480;52.370;9.748;2022-08-27T15:55:33;22.10;72.40
8888;DHT22;4480;52.370;9.748;2022-08-27T15:58:02;22.10;72.60
8888;DHT22;4480;52.370;9.748;2022-08-27T16:00:30;22.00;72.70
8888;DHT22;4480;52.370;9.748;2022-08-27T16:02:59;22.00;72.80
8888;DHT22;4480;52.370;9.748;2022-08-27T16:05:31;22.00;73.00
8888;DHT22;4480;52.370;9.748;2022-08-27T16:07:59;21.90;73.00
8888;DHT22;4480;52.370;9.748;2022-08-27T16:10:27;21.90;73.20
8888;DHT22;4480;52.370;9.748;2022-08-27T16:12:54;21.90;73.30
8888;DHT22;4480;52.370;9.748;2022-08-27T16:15:21;21.90;73.50
8888;DHT22;4480;52.370;9.748;2022-08-27T16:17:51;21.80;73.60
8888;DHT22;4480;52.370;9.748;2022-08-27T16:20:20;21.70;73.80
8888;DHT22;4480;52.370;9.748;2022-08-27T16:22:51;21.70;74.10
8888;DHT22;4480;52.370;9.748;2022-08-27T16:25:19;21.60;74.20
8888;DHT22;4480;52.370;9.748;2022-08-27T16:27:48;21.60;74.60